createdAt,value
2022-10-21T00:00:51.076Z,54.87
2022-10-21T00:03:18.970Z,55.33
2022-10-21T00:05:46.222Z,55.40
2022-10-21T00:08:13.362Z,55.23
2022-10-21T00:10:40.363Z,55.24
2022-10-21T00:13:07.827Z,55.24
2022-10-21T00:15:34.769Z,55.46
2022-10-21T00:18:01.727Z,55.10
2022-10-21T00:20:28.763Z,55.01
2022-10-21T00:22:55.723Z,55.21
2022-10-21T00:25:22.627Z,55.31
2022-10-21T00:27:49.536Z,54.84
2022-10-21T00:30:16.541Z,54.91
2022-10-21T00:32:43.529Z,54.85
2022-10-21T00:35:10.494Z,54.66
2022-10-21T00:37:37.618Z,54.85
2022-10-21T00:40:05.063Z,54.90
2022-10-21T00:42:39.702Z,54.98
2022-10-21T00:45:16.971Z,55.18
2022-10-21T00:47:53.267Z,54.98
2022-10-21T00:50:31.445Z,55.07
2022-10-21T00:53:00.709Z,55.42
2022-10-21T00:55:31.382Z,55.66
2022-10-21T00:57:58.635Z,55.43
2022-10-21T01:00:25.664Z,55.11
2022-10-21T01:02:53.056Z,54.84
2022-10-21T01:05:20.303Z,55.12
2022-10-21T01:07:49.361Z,54.83
2022-10-21T01:10:17.150Z,54.85
2022-10-21T01:13:27.311Z,54.77
2022-10-21T01:16:03.604Z,54.90
2022-10-21T01:18:51.573Z,55.01
2022-10-21T01:21:18.467Z,55.02
2022-10-21T01:24:18.609Z,55.35
2022-10-21T01:26:57.461Z,55.26
2022-10-21T01:29:42.652Z,55.19
2022-10-21T01:32:12.462Z,55.12
2022-10-21T01:34:53.631Z,55.24
2022-10-21T01:37:29.995Z,55.65
2022-10-21T01:40:10.366Z,55.44
2022-10-21T01:42:56.822Z,55.21
2022-10-21T01:45:39.407Z,55.17
2022-10-21T01:48:14.089Z,55.43
2022-10-21T01:50:52.271Z,55.44
2022-10-21T01:53:20.886Z,55.42
2022-10-21T01:55:49.615Z,55.62
2022-10-21T01:58:22.518Z,55.70
2022-10-21T02:00:52.315Z,55.65
2022-10-21T02:03:32.842Z,55.34
2022-10-21T02:06:00.092Z,55.51
2022-10-21T02:08:27.675Z,55.60
2022-10-21T02:10:58.084Z,55.68
2022-10-21T02:13:32.192Z,55.75
2022-10-21T02:16:02.697Z,55.74
2022-10-21T02:18:29.642Z,55.97
2022-10-21T02:21:00.774Z,55.97
2022-10-21T02:23:54.020Z,56.10
2022-10-21T02:26:26.424Z,56.18
2022-10-21T02:28:55.885Z,56.15
2022-10-21T02:31:34.997Z,55.99
2022-10-21T02:34:27.724Z,56.04
2022-10-21T02:37:07.396Z,55.85
2022-10-21T02:39:47.485Z,55.77
2022-10-21T02:42:20.534Z,56.03
2022-10-21T02:44:47.619Z,56.24
2022-10-21T02:47:16.864Z,56.46
2022-10-21T02:49:45.168Z,56.86
2022-10-21T02:52:12.355Z,56.68
2022-10-21T02:54:39.378Z,56.65
2022-10-21T02:57:06.355Z,56.47
2022-10-21T02:59:33.287Z,56.43
2022-10-21T03:02:00.465Z,56.17
2022-10-21T03:04:27.482Z,56.03
2022-10-21T03:06:55.059Z,56.26
2022-10-21T03:09:22.087Z,56.51
2022-10-21T03:11:48.980Z,56.35
2022-10-21T03:14:16.043Z,56.48
2022-10-21T03:16:42.903Z,56.61
2022-10-21T03:19:11.049Z,56.15
2022-10-21T03:21:37.940Z,56.11
2022-10-21T03:24:10.932Z,56.18
2022-10-21T03:26:51.871Z,56.64
2022-10-21T03:29:18.795Z,56.48
2022-10-21T03:31:45.794Z,56.91
2022-10-21T03:34:12.697Z,56.71
2022-10-21T03:36:39.629Z,56.85
2022-10-21T03:39:06.648Z,57.07
2022-10-21T03:41:33.714Z,57.08
2022-10-21T03:44:00.592Z,56.68
2022-10-21T03:46:27.467Z,56.69
2022-10-21T03:48:57.279Z,56.42
2022-10-21T03:51:27.948Z,56.32
2022-10-21T03:53:54.902Z,56.75
2022-10-21T03:56:21.886Z,56.79
2022-10-21T03:58:48.786Z,56.47
2022-10-21T04:01:18.503Z,56.64
2022-10-21T04:03:45.563Z,56.75
2022-10-21T04:06:12.516Z,57.06
2022-10-21T04:08:39.454Z,57.27
2022-10-21T04:11:06.349Z,56.85
2022-10-21T04:13:33.620Z,57.01
2022-10-21T04:16:02.072Z,56.96
2022-10-21T04:18:29.208Z,57.13
2022-10-21T04:20:56.425Z,57.17
2022-10-21T04:23:23.370Z,56.96
2022-10-21T04:25:50.328Z,56.94
2022-10-21T04:28:17.381Z,57.28
2022-10-21T04:30:44.396Z,57.42
2022-10-21T04:33:11.282Z,56.79
2022-10-21T04:35:40.276Z,56.72
2022-10-21T04:38:07.389Z,56.86
2022-10-21T04:40:34.448Z,56.94
2022-10-21T04:43:02.213Z,56.84
2022-10-21T04:45:29.208Z,56.38
2022-10-21T04:47:56.184Z,57.22
2022-10-21T04:50:23.029Z,57.20
2022-10-21T04:52:51.885Z,57.08
2022-10-21T04:55:18.949Z,57.11
2022-10-21T04:57:46.193Z,57.28
2022-10-21T05:00:13.475Z,57.15
2022-10-21T05:02:40.738Z,57.26
2022-10-21T05:05:08.500Z,57.13
2022-10-21T05:07:35.466Z,56.97
2022-10-21T05:10:02.423Z,57.34
2022-10-21T05:12:29.363Z,57.96
2022-10-21T05:14:56.325Z,57.77
2022-10-21T05:17:23.244Z,57.98
2022-10-21T05:19:50.257Z,57.93
2022-10-21T05:22:17.266Z,57.82
2022-10-21T05:24:44.253Z,58.24
2022-10-21T05:27:11.204Z,58.27
2022-10-21T05:29:38.151Z,58.24
2022-10-21T05:32:05.348Z,58.11
2022-10-21T05:34:32.353Z,58.36
2022-10-21T05:36:59.356Z,58.87
2022-10-21T05:39:26.528Z,58.77
2022-10-21T05:41:53.478Z,59.11
2022-10-21T05:44:20.448Z,59.93
2022-10-21T05:46:47.483Z,59.97
2022-10-21T05:49:14.641Z,59.73
2022-10-21T05:51:41.612Z,59.64
2022-10-21T05:54:08.557Z,60.12
2022-10-21T05:56:35.485Z,60.39
2022-10-21T05:59:04.456Z,61.09
2022-10-21T06:01:33.608Z,61.38
2022-10-21T06:04:00.579Z,61.72
2022-10-21T06:06:27.540Z,61.89
2022-10-21T06:08:54.522Z,61.90
2022-10-21T06:11:21.622Z,62.13
2022-10-21T06:13:48.700Z,62.77
2022-10-21T06:16:16.798Z,63.54
2022-10-21T06:18:43.957Z,63.47
2022-10-21T06:21:11.283Z,63.19
2022-10-21T06:23:38.979Z,63.24
2022-10-21T06:26:12.860Z,63.50
2022-10-21T06:28:42.091Z,64.35
2022-10-21T06:31:12.518Z,64.14
2022-10-21T06:33:39.469Z,64.40
2022-10-21T06:36:06.822Z,64.35
2022-10-21T06:38:33.879Z,63.97
2022-10-21T06:41:09.089Z,63.93
2022-10-21T06:43:39.576Z,64.17
2022-10-21T06:46:12.352Z,65.25
2022-10-21T06:48:39.483Z,66.26
2022-10-21T06:51:15.265Z,66.57
2022-10-21T06:53:43.195Z,67.07
2022-10-21T06:56:12.980Z,68.01
2022-10-21T06:58:46.451Z,68.67
2022-10-21T07:01:34.376Z,68.60
2022-10-21T07:04:09.209Z,68.24
2022-10-21T07:06:36.959Z,67.92
2022-10-21T07:09:06.100Z,68.53
2022-10-21T07:11:33.161Z,68.99
2022-10-21T07:14:02.070Z,69.17
2022-10-21T07:16:31.835Z,68.29
2022-10-21T07:18:58.991Z,68.60
2022-10-21T07:21:28.081Z,68.45
2022-10-21T07:23:59.205Z,66.98
2022-10-21T07:26:28.325Z,67.20
2022-10-21T07:28:58.225Z,66.76
2022-10-21T07:31:25.612Z,66.93
2022-10-21T07:33:53.252Z,66.50
2022-10-21T07:36:24.275Z,66.12
2022-10-21T07:38:53.615Z,65.89
2022-10-21T07:41:23.790Z,65.50
2022-10-21T07:43:51.766Z,65.41
2022-10-21T07:46:20.197Z,65.62
2022-10-21T07:48:48.177Z,63.97
2022-10-21T07:51:18.295Z,64.43
2022-10-21T07:53:45.523Z,63.29
2022-10-21T07:56:16.768Z,63.92
2022-10-21T07:58:46.539Z,63.67
2022-10-21T08:01:15.396Z,62.73
2022-10-21T08:03:42.803Z,62.66
2022-10-21T08:06:11.767Z,62.06
2022-10-21T08:08:40.067Z,61.28
2022-10-21T08:11:08.287Z,60.88
2022-10-21T08:13:36.045Z,60.52
2022-10-21T08:16:06.772Z,58.90
2022-10-21T08:18:33.750Z,59.54
2022-10-21T08:21:04.085Z,59.74
2022-10-21T08:23:31.329Z,59.41
2022-10-21T08:26:00.847Z,59.24
2022-10-21T08:28:29.887Z,58.32
2022-10-21T08:31:14.442Z,57.43
2022-10-21T08:33:41.482Z,57.15
2022-10-21T08:36:13.962Z,55.70
2022-10-21T08:38:41.231Z,56.69
2022-10-21T08:41:23.437Z,55.53
2022-10-21T08:43:53.172Z,54.75
2022-10-21T08:46:30.052Z,54.93
2022-10-21T08:49:05.709Z,54.32
2022-10-21T08:51:40.091Z,51.20
2022-10-21T08:54:15.208Z,53.32
2022-10-21T08:56:42.289Z,51.70
2022-10-21T08:59:22.769Z,52.79
2022-10-21T09:02:18.213Z,52.73
2022-10-21T09:05:14.332Z,52.76
2022-10-21T09:07:56.560Z,52.26
2022-10-21T09:10:29.468Z,51.61
2022-10-21T09:13:14.992Z,47.84
2022-10-21T09:16:03.600Z,50.37
2022-10-21T09:18:47.002Z,50.24
2022-10-21T09:21:23.453Z,50.22
2022-10-21T09:24:04.862Z,49.09
2022-10-21T09:26:31.763Z,49.81
2022-10-21T09:29:06.505Z,48.84
2022-10-21T09:31:33.446Z,49.09
2022-10-21T09:34:06.351Z,47.66
2022-10-21T09:36:39.622Z,47.75
2022-10-21T09:39:16.290Z,42.17
2022-10-21T09:41:48.206Z,42.51
2022-10-21T09:44:18.688Z,42.90
2022-10-21T09:46:47.564Z,45.56
2022-10-21T09:52:21.207Z,43.49
2022-10-21T09:54:49.014Z,45.27
2022-10-21T09:57:29.034Z,44.72
2022-10-21T09:59:59.723Z,44.43
2022-10-21T10:02:43.261Z,42.26
2022-10-21T10:05:41.016Z,39.94
2022-10-21T10:08:26.699Z,38.45
2022-10-21T10:11:04.421Z,39.38
2022-10-21T10:13:32.227Z,38.66
2022-10-21T10:16:29.846Z,36.15
2022-10-21T10:19:21.112Z,37.49
2022-10-21T10:22:10.365Z,40.13
2022-10-21T10:24:40.733Z,39.42
2022-10-21T10:27:15.727Z,38.89
2022-10-21T10:29:43.129Z,39.37
2022-10-21T10:32:15.235Z,38.74
2022-10-21T10:34:55.768Z,39.70
2022-10-21T10:37:28.952Z,38.54
2022-10-21T10:39:58.623Z,38.99
2022-10-21T10:42:28.442Z,40.47
2022-10-21T10:44:59.428Z,40.57
2022-10-21T10:47:29.907Z,41.02
2022-10-21T10:49:57.065Z,42.91
2022-10-21T10:52:25.672Z,41.83
2022-10-21T10:55:10.920Z,39.30
2022-10-21T10:57:51.980Z,39.69
2022-10-21T11:00:26.172Z,40.85
2022-10-21T11:03:10.775Z,40.18
2022-10-21T11:05:46.509Z,41.60
2022-10-21T11:08:32.002Z,41.59
2022-10-21T11:11:14.214Z,41.20
2022-10-21T11:13:42.278Z,41.61
2022-10-21T11:16:59.668Z,42.19
2022-10-21T11:19:30.562Z,39.75
2022-10-21T11:22:13.535Z,37.23
2022-10-21T11:24:57.145Z,37.99
2022-10-21T11:27:55.194Z,36.51
2022-10-21T11:30:29.761Z,38.16
2022-10-21T11:33:02.707Z,38.96
2022-10-21T11:35:37.297Z,37.10
2022-10-21T11:38:19.399Z,38.18
2022-10-21T11:40:50.385Z,38.40
2022-10-21T11:43:38.514Z,35.04
2022-10-21T11:46:16.719Z,36.30
2022-10-21T11:48:52.815Z,34.40
2022-10-21T11:51:28.831Z,32.87
2022-10-21T11:54:06.373Z,35.07
2022-10-21T11:56:40.165Z,33.40
2022-10-21T11:59:47.682Z,34.42
2022-10-21T12:02:26.106Z,31.33
2022-10-21T12:05:07.976Z,32.62
2022-10-21T12:08:10.061Z,34.45
2022-10-21T12:10:58.860Z,33.84
2022-10-21T12:13:55.141Z,32.25
2022-10-21T12:16:29.763Z,31.51
2022-10-21T12:19:01.471Z,30.20
2022-10-21T12:21:32.208Z,28.23
2022-10-21T12:24:15.786Z,28.67
2022-10-21T12:26:48.671Z,31.18
2022-10-21T12:29:24.839Z,30.75
2022-10-21T12:32:01.194Z,30.13
2022-10-21T12:34:28.990Z,28.50
2022-10-21T12:36:56.071Z,25.61
2022-10-21T12:39:34.998Z,28.25
2022-10-21T12:42:29.222Z,29.59
2022-10-21T12:44:56.274Z,29.83
2022-10-21T12:47:33.105Z,30.43
2022-10-21T12:50:05.012Z,25.44
2022-10-21T12:52:38.258Z,27.68
2022-10-21T12:55:17.121Z,28.83
2022-10-21T12:57:44.575Z,25.66
2022-10-21T13:03:09.734Z,26.25
2022-10-21T13:05:36.594Z,26.66
2022-10-21T13:08:24.771Z,29.42
2022-10-21T13:11:04.041Z,28.95
2022-10-21T13:13:47.839Z,28.52
2022-10-21T13:16:20.838Z,25.71
2022-10-21T13:18:51.103Z,27.86
2022-10-21T13:21:47.245Z,28.30
2022-10-21T13:24:47.212Z,29.45
2022-10-21T13:27:30.475Z,30.73
2022-10-21T13:29:59.589Z,30.52
2022-10-21T13:32:29.112Z,30.38
2022-10-21T13:35:19.429Z,29.98
2022-10-21T13:38:04.168Z,27.92
2022-10-21T13:40:38.069Z,29.53
2022-10-21T13:43:17.765Z,29.24
2022-10-21T13:45:50.683Z,29.17
2022-10-21T13:48:24.789Z,29.82
2022-10-21T13:50:56.192Z,29.48
2022-10-21T13:53:38.092Z,28.51
2022-10-21T13:56:08.881Z,28.87
2022-10-21T13:58:41.258Z,29.66
2022-10-21T14:01:14.066Z,30.59
2022-10-21T14:03:42.439Z,29.91
2022-10-21T14:06:12.651Z,31.09
2022-10-21T14:08:45.939Z,32.29
2022-10-21T14:11:16.366Z,31.89
2022-10-21T14:13:43.753Z,32.53
2022-10-21T14:16:20.129Z,32.65
2022-10-21T14:18:49.288Z,32.09
2022-10-21T14:21:21.938Z,31.45
2022-10-21T14:23:50.357Z,32.55
2022-10-21T14:26:17.741Z,33.49
2022-10-21T14:28:46.339Z,33.02
2022-10-21T14:31:14.559Z,33.29
2022-10-21T14:33:45.327Z,33.89
2022-10-21T14:36:26.156Z,33.97
2022-10-21T14:38:55.919Z,34.73
2022-10-21T14:41:31.587Z,35.47
2022-10-21T14:44:07.770Z,35.52
2022-10-21T14:46:43.703Z,35.46
2022-10-21T14:49:30.638Z,35.38
2022-10-21T14:52:01.987Z,35.06
2022-10-21T14:54:45.796Z,36.25
2022-10-21T14:57:34.206Z,34.83
2022-10-21T15:00:03.350Z,35.55
2022-10-21T15:02:34.540Z,34.93
2022-10-21T15:05:25.631Z,35.10
2022-10-21T15:07:52.708Z,35.59
2022-10-21T15:10:20.616Z,35.70
2022-10-21T15:12:50.573Z,36.12
2022-10-21T15:15:54.223Z,37.45
2022-10-21T15:18:24.100Z,37.46
2022-10-21T15:21:01.733Z,37.46
2022-10-21T15:23:34.329Z,37.81
2022-10-21T15:26:11.817Z,37.48
2022-10-21T15:28:39.003Z,38.03
2022-10-21T15:31:11.491Z,38.00
2022-10-21T15:33:38.398Z,38.03
2022-10-21T15:36:09.822Z,38.00
2022-10-21T15:38:38.504Z,38.28
2022-10-21T15:41:05.596Z,37.83
2022-10-21T15:43:32.647Z,38.04
2022-10-21T15:45:59.647Z,37.28
2022-10-21T15:48:28.192Z,37.67
2022-10-21T15:50:57.388Z,37.83
2022-10-21T15:53:24.475Z,37.89
2022-10-21T15:55:51.942Z,38.31
2022-10-21T15:58:19.023Z,37.98
2022-10-21T16:00:46.330Z,38.75
2022-10-21T16:03:13.944Z,38.63
2022-10-21T16:05:40.938Z,38.54
2022-10-21T16:08:12.393Z,38.23
2022-10-21T16:10:41.747Z,37.67
2022-10-21T16:13:08.674Z,37.29
2022-10-21T16:15:35.639Z,37.80
2022-10-21T16:18:02.600Z,37.90
2022-10-21T16:20:31.574Z,38.43
2022-10-21T16:23:02.081Z,38.75
2022-10-21T16:25:31.160Z,39.27
2022-10-21T16:27:58.120Z,39.28
2022-10-21T16:30:28.248Z,39.35
2022-10-21T16:32:55.801Z,39.52
2022-10-21T16:35:22.821Z,39.85
2022-10-21T16:37:50.450Z,39.93
2022-10-21T16:40:32.928Z,40.27
2022-10-21T16:42:59.879Z,40.54
2022-10-21T16:45:32.068Z,40.86
2022-10-21T16:48:03.166Z,40.73
2022-10-21T16:50:37.463Z,40.95
2022-10-21T16:53:05.107Z,40.88
2022-10-21T16:55:32.358Z,41.23
2022-10-21T16:57:59.325Z,41.24
2022-10-21T17:00:26.295Z,41.67
2022-10-21T17:02:53.930Z,41.99
2022-10-21T17:05:21.004Z,41.96
2022-10-21T17:07:47.914Z,42.31
2022-10-21T17:10:15.339Z,42.30
2022-10-21T17:12:42.614Z,42.29
2022-10-21T17:15:14.292Z,42.76
2022-10-21T17:17:41.459Z,42.86
2022-10-21T17:20:09.319Z,43.02
2022-10-21T17:22:36.285Z,43.72
2022-10-21T17:25:03.341Z,44.22
2022-10-21T17:27:30.204Z,43.93
2022-10-21T17:29:57.374Z,44.38
2022-10-21T17:32:25.124Z,44.65
2022-10-21T17:34:52.100Z,44.45
2022-10-21T17:37:19.074Z,44.15
2022-10-21T17:39:46.935Z,44.36
2022-10-21T17:42:17.417Z,44.63
2022-10-21T17:44:44.483Z,44.87
2022-10-21T17:47:11.864Z,44.94
2022-10-21T17:49:39.395Z,45.06
2022-10-21T17:52:06.361Z,45.49
2022-10-21T17:54:36.149Z,45.41
2022-10-21T17:57:03.600Z,45.28
2022-10-21T17:59:32.856Z,45.37
2022-10-21T18:02:00.640Z,45.31
2022-10-21T18:04:28.619Z,45.06
2022-10-21T18:06:55.766Z,44.88
2022-10-21T18:09:22.983Z,45.28
2022-10-21T18:11:50.053Z,45.16
2022-10-21T18:14:17.094Z,45.46
2022-10-21T18:16:44.040Z,45.60
2022-10-21T18:19:12.180Z,45.79
2022-10-21T18:21:39.208Z,45.97
2022-10-21T18:24:10.011Z,46.02
2022-10-21T18:26:39.715Z,46.46
2022-10-21T18:29:06.581Z,46.48
2022-10-21T18:31:35.740Z,46.70
2022-10-21T18:34:05.120Z,46.86
2022-10-21T18:36:33.084Z,46.89
2022-10-21T18:39:00.200Z,47.07
2022-10-21T18:41:27.495Z,47.24
2022-10-21T18:43:57.235Z,47.22
2022-10-21T18:46:24.554Z,47.24
2022-10-21T18:48:52.000Z,47.39
2022-10-21T18:51:20.835Z,47.68
2022-10-21T18:53:49.977Z,47.99
2022-10-21T18:56:19.189Z,48.25
2022-10-21T18:58:46.307Z,48.50
2022-10-21T19:01:15.268Z,48.75
2022-10-21T19:03:43.346Z,48.73
2022-10-21T19:06:48.760Z,48.97
2022-10-21T19:09:19.081Z,49.17
2022-10-21T19:11:47.019Z,49.20
2022-10-21T19:14:15.098Z,49.51
2022-10-21T19:16:43.650Z,49.71
2022-10-21T19:19:11.134Z,49.68
2022-10-21T19:21:38.283Z,49.95
2022-10-21T19:24:06.322Z,50.40
2022-10-21T19:26:35.667Z,50.07
2022-10-21T19:29:08.573Z,50.19
2022-10-21T19:31:36.456Z,50.42
2022-10-21T19:34:05.981Z,50.88
2022-10-21T19:36:33.307Z,50.66
2022-10-21T19:39:00.184Z,50.75
2022-10-21T19:41:27.102Z,50.28
2022-10-21T19:43:58.617Z,50.22
2022-10-21T19:46:30.791Z,50.09
2022-10-21T19:49:00.132Z,50.15
2022-10-21T19:51:27.066Z,50.15
2022-10-21T19:53:55.118Z,50.43
2022-10-21T19:56:26.924Z,50.11
2022-10-21T19:58:56.044Z,50.00
2022-10-21T20:01:25.942Z,50.09
2022-10-21T20:03:54.051Z,50.22
2022-10-21T20:06:26.506Z,50.60
2022-10-21T20:08:55.577Z,50.46
2022-10-21T20:11:23.011Z,50.71
2022-10-21T20:13:50.795Z,50.54
2022-10-21T20:16:19.519Z,50.14
2022-10-21T20:18:46.701Z,50.39
2022-10-21T20:21:13.875Z,50.76
2022-10-21T20:23:40.996Z,51.17
2022-10-21T20:26:08.396Z,51.02
2022-10-21T20:28:36.100Z,51.16
2022-10-21T20:31:06.999Z,50.90
2022-10-21T20:33:37.320Z,50.75
2022-10-21T20:36:06.385Z,50.69
2022-10-21T20:38:33.910Z,50.93
2022-10-21T20:41:06.596Z,50.92
2022-10-21T20:43:38.765Z,50.94
2022-10-21T20:46:10.082Z,50.91
2022-10-21T20:48:44.562Z,51.02
2022-10-21T20:51:14.569Z,50.71
2022-10-21T20:56:13.187Z,50.73
2022-10-21T20:58:41.319Z,51.47
2022-10-21T21:04:00.802Z,51.21
2022-10-21T21:06:28.537Z,51.09
2022-10-21T21:11:42.656Z,50.83
2022-10-21T21:14:09.617Z,51.13
2022-10-21T21:16:36.591Z,51.73
2022-10-21T21:19:06.085Z,52.04
2022-10-21T21:21:35.672Z,52.03
2022-10-21T21:24:03.391Z,51.82
2022-10-21T21:26:36.389Z,51.39
2022-10-21T21:29:06.341Z,51.55
2022-10-21T21:31:35.961Z,51.37
2022-10-21T21:34:03.819Z,51.48
2022-10-21T21:36:30.918Z,51.25
2022-10-21T21:38:58.170Z,50.91
2022-10-21T21:41:26.465Z,51.17
2022-10-21T21:43:54.236Z,51.18
2022-10-21T21:46:24.652Z,51.06
2022-10-21T21:49:05.503Z,51.08
2022-10-21T21:51:35.476Z,51.06
2022-10-21T21:54:04.448Z,51.00
2022-10-21T21:56:31.563Z,50.98
2022-10-21T21:58:58.792Z,50.94
2022-10-21T22:01:28.384Z,50.79
2022-10-21T22:03:56.471Z,50.36
2022-10-21T22:08:53.883Z,50.02
2022-10-21T22:11:23.473Z,49.75
2022-10-21T22:13:50.690Z,49.81
2022-10-21T22:16:19.945Z,49.87
2022-10-21T22:18:46.979Z,49.85
2022-10-21T22:21:16.548Z,50.06
2022-10-21T22:23:43.940Z,49.54
2022-10-21T22:26:12.752Z,49.99
2022-10-21T22:28:40.470Z,49.43
2022-10-21T22:31:11.157Z,49.86
2022-10-21T22:33:38.979Z,49.90
2022-10-21T22:36:06.282Z,50.36
2022-10-21T22:38:33.614Z,50.36
2022-10-21T22:41:02.477Z,49.71
2022-10-21T22:43:30.011Z,49.92
2022-10-21T22:46:04.941Z,50.35
2022-10-21T22:48:42.167Z,50.25
2022-10-21T22:51:09.238Z,50.12
2022-10-21T22:53:36.871Z,50.04
2022-10-21T22:56:04.571Z,49.74
2022-10-21T22:58:31.930Z,49.33
2022-10-21T23:00:59.634Z,49.34
2022-10-21T23:03:26.930Z,48.82
2022-10-21T23:05:53.879Z,48.85
2022-10-21T23:08:20.939Z,48.88
2022-10-21T23:10:49.189Z,48.38
2022-10-21T23:13:16.432Z,48.59
2022-10-21T23:15:43.873Z,48.21
2022-10-21T23:18:10.916Z,48.44
2022-10-21T23:20:37.975Z,48.03
2022-10-21T23:23:05.149Z,48.16
2022-10-21T23:25:32.452Z,47.89
2022-10-21T23:27:59.402Z,47.79
2022-10-21T23:30:26.476Z,47.17
2022-10-21T23:32:53.432Z,47.18
2022-10-21T23:35:21.042Z,47.76
2022-10-21T23:37:48.123Z,48.13
2022-10-21T23:40:15.167Z,48.20
2022-10-21T23:42:43.023Z,47.05
2022-10-21T23:45:11.495Z,47.06
2022-10-21T23:47:40.026Z,46.75
2022-10-21T23:50:08.343Z,46.89
2022-10-21T23:52:35.682Z,46.98
2022-10-21T23:55:03.543Z,46.52
2022-10-21T23:57:30.591Z,46.93
2022-10-21T23:59:57.595Z,47.00
